Time;durP1;ratioP1;P1;durP2;ratioP2;P2;SDS_P1;SDS_P2;PMS_P1;PMS_P2;Temp;Humidity;BMP_temperature;BMP_pressure;BME280_temperature;BME280_humidity;BME280_pressure;Samples;Min_cycle;Max_cycle;Signal;HPM_P1;HPM_P2
2023/05/18 00:01:31;;;;;;;;;22.80;22.80;;;;;15.02;62.10;99214.72;5050618;28;8825;-79
2023/05/18 00:04:00;;;;;;;;;21.80;21.20;;;;;14.95;61.95;99215.91;5049096;28;8860;-79
2023/05/18 00:06:29;;;;;;;;;19.40;19.40;;;;;15.06;61.53;99206.53;5049513;28;8985;-79
2023/05/18 00:08:58;;;;;;;;;18.00;18.00;;;;;15.07;61.19;99202.09;5066208;28;9140;-79
2023/05/18 00:11:27;;;;;;;;;19.80;18.00;;;;;14.98;61.35;99208.69;5064570;28;8944;-80
2023/05/18 00:13:57;;;;;;;;;24.80;23.00;;;;;14.85;61.45;99218.94;5069575;28;8861;-79
2023/05/18 00:16:26;;;;;;;;;22.00;20.60;;;;;14.81;61.56;99209.44;5069373;28;9689;-78
2023/05/18 00:18:55;;;;;;;;;21.80;20.00;;;;;14.82;61.09;99218.22;5086389;28;8865;-77
2023/05/18 00:21:29;;;;;;;;;20.20;20.20;;;;;14.63;61.53;99211.03;5085902;28;8837;-78
2023/05/18 00:23:58;;;;;;;;;25.20;24.00;;;;;14.59;61.45;99227.13;5069386;28;8870;-78
2023/05/18 00:26:27;;;;;;;;;24.80;24.60;;;;;14.65;61.16;99222.41;5052849;28;8866;-78
2023/05/18 00:28:58;;;;;;;;;21.60;19.60;;;;;14.40;61.52;99227.91;5045270;28;8888;-80
2023/05/18 00:31:27;;;;;;;;;21.80;20.80;;;;;14.55;61.39;99230.84;5046189;28;8846;-78
2023/05/18 00:33:55;;;;;;;;;22.60;21.60;;;;;14.53;60.95;99236.19;5045640;28;8874;-78
2023/05/18 00:36:24;;;;;;;;;20.40;19.00;;;;;14.58;60.69;99233.31;5029241;28;8854;-78
2023/05/18 00:38:53;;;;;;;;;22.60;21.80;;;;;14.55;60.41;99239.63;5009211;28;8889;-78
2023/05/18 00:41:22;;;;;;;;;23.40;22.40;;;;;14.63;59.97;99241.94;5009271;28;8883;-78
2023/05/18 00:43:51;;;;;;;;;21.60;21.20;;;;;14.69;59.81;99239.03;5007314;28;8856;-77
2023/05/18 00:46:23;;;;;;;;;20.40;20.40;;;;;14.67;59.72;99238.22;4993199;28;8875;-78
2023/05/18 00:48:52;;;;;;;;;23.00;22.80;;;;;14.66;59.64;99237.38;5005791;28;9727;-78
2023/05/18 00:51:23;;;;;;;;;20.80;20.80;;;;;14.59;59.65;99246.50;4980467;28;8886;-79
2023/05/18 00:53:54;;;;;;;;;21.00;19.60;;;;;14.43;60.06;99246.28;4994980;28;8890;-78
2023/05/18 00:56:25;;;;;;;;;25.80;21.20;;;;;14.37;60.10;99248.31;4973775;28;8850;-78
2023/05/18 00:58:56;;;;;;;;;21.80;21.00;;;;;14.38;59.84;99242.13;5007608;28;8864;-77
2023/05/18 01:01:29;;;;;;;;;20.60;20.40;;;;;14.30;60.05;99245.09;5045739;28;8866;-78
2023/05/18 01:04:01;;;;;;;;;24.00;22.80;;;;;14.20;60.15;99259.59;5051970;28;8858;-77
2023/05/18 01:06:34;;;;;;;;;20.20;19.20;;;;;14.25;59.87;99257.63;5048837;28;8872;-76
2023/05/18 01:09:06;;;;;;;;;22.60;21.20;;;;;13.88;60.56;99253.78;5048396;28;8840;-78
2023/05/18 01:11:43;;;;;;;;;22.20;19.40;;;;;13.80;61.06;99256.75;5015553;28;8844;-78
2023/05/18 01:14:20;;;;;;;;;25.40;20.80;;;;;13.45;62.19;99256.28;5065270;28;8895;-77
2023/05/18 01:16:56;;;;;;;;;21.40;20.60;;;;;13.65;61.40;99260.78;5064193;28;8844;-81
2023/05/18 01:20:00;;;;;;;;;20.80;19.20;;;;;13.78;61.10;99261.19;5048421;28;8874;-80
2023/05/18 01:22:38;;;;;;;;;23.60;21.20;;;;;13.56;61.08;99263.78;5005359;28;8866;-78
2023/05/18 01:25:18;;;;;;;;;16.80;16.80;;;;;13.53;61.50;99263.06;4941463;28;9775;-79
2023/05/18 01:27:51;;;;;;;;;19.60;18.40;;;;;13.53;61.17;99265.72;4986297;28;8978;-77
2023/05/18 01:30:20;;;;;;;;;19.80;18.80;;;;;13.41;61.47;99267.00;4974652;28;9714;-79
2023/05/18 01:32:49;;;;;;;;;18.40;18.40;;;;;13.38;61.76;99268.00;4987872;28;8947;-77
2023/05/18 01:35:18;;;;;;;;;19.40;18.60;;;;;13.42;61.52;99274.03;4955545;28;8874;-78
2023/05/18 01:37:47;;;;;;;;;19.40;19.20;;;;;13.29;61.78;99269.19;4988897;28;8870;-77
2023/05/18 01:40:15;;;;;;;;;18.00;17.00;;;;;13.27;62.07;99268.38;4988695;28;8885;-78
2023/05/18 01:42:51;;;;;;;;;15.00;15.00;;;;;13.35;61.89;99275.16;4988920;28;8977;-79
2023/05/18 01:45:27;;;;;;;;;17.60;17.60;;;;;13.30;62.13;99276.19;4988856;28;8932;-78
2023/05/18 01:48:00;;;;;;;;;18.80;18.80;;;;;13.41;61.93;99273.16;4989360;28;8874;-78
2023/05/18 01:50:36;;;;;;;;;20.20;20.00;;;;;13.39;61.90;99275.00;5000815;28;8852;-78
2023/05/18 01:53:12;;;;;;;;;21.00;20.60;;;;;13.42;61.78;99269.59;4986059;28;8876;-77
2023/05/18 01:55:43;;;;;;;;;21.40;19.20;;;;;13.58;61.54;99272.53;4995446;28;8864;-78
2023/05/18 01:58:15;;;;;;;;;20.80;20.00;;;;;13.71;61.23;99272.91;4999463;28;8829;-79
2023/05/18 02:00:46;;;;;;;;;19.40;19.40;;;;;13.66;61.02;99278.38;5054057;28;8877;-77
2023/05/18 02:03:15;;;;;;;;;16.80;14.60;;;;;13.63;61.23;99283.75;5070642;28;8878;-79
2023/05/18 02:05:44;;;;;;;;;19.20;17.40;;;;;13.72;61.00;99277.28;5038857;28;8971;-78
2023/05/18 02:08:13;;;;;;;;;16.60;16.60;;;;;13.83;61.08;99284.84;5033547;28;8853;-78
2023/05/18 02:10:42;;;;;;;;;21.20;20.80;;;;;13.42;61.45;99287.22;5059965;28;8868;-77
2023/05/18 02:13:11;;;;;;;;;23.00;21.00;;;;;11.54;67.70;99296.81;5048811;28;9627;-79
2023/05/18 02:15:43;;;;;;;;;19.60;19.60;;;;;10.86;71.86;99296.91;5033170;28;8865;-77
2023/05/18 02:18:13;;;;;;;;;18.20;17.20;;;;;10.21;74.85;99306.38;5033370;28;9007;-78
2023/05/18 02:20:42;;;;;;;;;23.60;21.60;;;;;10.14;75.66;99308.28;4999584;28;8892;-78
2023/05/18 02:23:11;;;;;;;;;22.80;19.60;;;;;9.96;76.49;99312.19;5047752;28;8883;-78
2023/05/18 02:25:40;;;;;;;;;22.40;21.60;;;;;9.68;77.51;99314.53;5036063;28;9165;-78
2023/05/18 02:28:10;;;;;;;;;23.60;21.60;;;;;9.44;79.64;99315.88;5069384;28;8853;-79
2023/05/18 02:30:38;;;;;;;;;24.20;21.00;;;;;9.22;80.47;99321.53;5068410;28;8839;-79
2023/05/18 02:33:09;;;;;;;;;26.60;21.80;;;;;9.13;81.40;99320.84;5049305;28;8868;-80
2023/05/18 02:35:39;;;;;;;;;22.60;20.80;;;;;9.04;81.49;99325.38;5016347;28;8881;-80
2023/05/18 02:38:08;;;;;;;;;23.60;21.40;;;;;9.10;81.67;99319.16;5072242;28;8873;-78
2023/05/18 02:40:37;;;;;;;;;22.60;20.20;;;;;9.10;81.81;99324.41;5054794;28;8866;-77
2023/05/18 02:43:06;;;;;;;;;25.60;21.60;;;;;8.79;82.57;99326.69;5018874;28;8846;-79
2023/05/18 02:45:35;;;;;;;;;22.60;21.00;;;;;8.76;83.44;99327.63;5052908;28;8854;-78
2023/05/18 02:48:04;;;;;;;;;22.00;21.60;;;;;8.68;83.15;99323.41;5069334;28;9001;-78
2023/05/18 02:50:35;;;;;;;;;25.80;23.60;;;;;9.00;81.96;99323.69;5071007;28;8847;-78
2023/05/18 02:53:03;;;;;;;;;29.80;28.20;;;;;8.79;82.28;99327.56;5052335;28;8868;-79
2023/05/18 02:55:32;;;;;;;;;26.60;25.60;;;;;8.68;82.82;99326.88;5069446;28;8972;-78
2023/05/18 02:58:15;;;;;;;;;21.80;21.40;;;;;8.76;82.69;99339.84;5050673;28;8864;-77
2023/05/18 03:00:59;;;;;;;;;25.20;23.00;;;;;8.62;82.95;99333.06;5050959;28;8856;-77
2023/05/18 03:03:34;;;;;;;;;21.80;21.60;;;;;8.83;82.10;99337.09;5067386;28;8944;-77
2023/05/18 03:06:07;;;;;;;;;22.00;21.20;;;;;8.97;81.18;99334.25;5035416;28;8836;-78
2023/05/18 03:08:37;;;;;;;;;25.60;24.60;;;;;9.03;81.46;99339.38;4994995;28;8856;-78
2023/05/18 03:11:05;;;;;;;;;22.00;20.40;;;;;9.08;80.85;99343.66;4993933;28;8838;-78
2023/05/18 03:13:34;;;;;;;;;22.20;20.40;;;;;8.93;81.18;99345.69;5030506;28;9592;-77
2023/05/18 03:16:04;;;;;;;;;24.20;20.80;;;;;9.07;80.53;99345.44;5047452;28;8881;-78
2023/05/18 03:18:33;;;;;;;;;19.80;18.60;;;;;9.20;79.58;99348.69;5014469;28;8862;-78
2023/05/18 03:21:04;;;;;;;;;25.80;24.80;;;;;9.19;79.52;99345.19;5014818;28;8939;-77
2023/05/18 03:23:32;;;;;;;;;25.80;23.60;;;;;9.43;79.40;99349.13;5014440;28;9047;-77
2023/05/18 03:26:02;;;;;;;;;19.60;19.40;;;;;9.01;80.64;99358.66;5029688;28;9572;-79
2023/05/18 03:28:31;;;;;;;;;23.00;20.20;;;;;8.88;80.84;99362.38;5013712;28;8862;-77
2023/05/18 03:31:00;;;;;;;;;22.20;20.60;;;;;8.89;81.51;99362.34;5047523;28;8857;-77
2023/05/18 03:33:30;;;;;;;;;29.20;26.40;;;;;8.89;81.17;99364.09;5014415;28;8877;-77
2023/05/18 03:36:04;;;;;;;;;25.80;25.80;;;;;8.86;80.74;99361.56;5047447;28;8930;-78
2023/05/18 03:38:33;;;;;;;;;24.80;24.60;;;;;9.16;79.57;99374.13;5052283;28;8866;-77
2023/05/18 03:41:08;;;;;;;;;23.20;23.20;;;;;9.15;79.89;99382.00;5051759;28;8939;-78
2023/05/18 03:43:37;;;;;;;;;27.80;26.00;;;;;9.10;79.96;99376.84;5067925;28;8976;-78
2023/05/18 03:46:08;;;;;;;;;26.80;23.20;;;;;9.41;78.36;99381.53;5068663;28;8885;-79
2023/05/18 03:48:36;;;;;;;;;26.40;26.40;;;;;9.19;79.07;99381.06;5068555;28;8862;-77
2023/05/18 03:51:07;;;;;;;;;22.75;22.00;;;;;9.13;79.01;99396.91;5068355;28;8968;-80
2023/05/18 03:53:36;;;;;;;;;26.00;24.00;;;;;9.14;79.24;99396.88;5068281;28;8866;-78
2023/05/18 03:56:06;;;;;;;;;23.60;22.00;;;;;9.12;79.57;99400.41;5067857;28;10166;-79
2023/05/18 03:58:35;;;;;;;;;23.80;23.60;;;;;9.30;79.59;99397.47;5067272;28;8850;-77
2023/05/18 04:01:05;;;;;;;;;16.00;14.60;;;;;9.37;78.82;99396.47;5049302;28;8832;-78
2023/05/18 04:03:34;;;;;;;;;15.00;14.80;;;;;9.69;77.12;99399.38;5033287;28;8890;-78
2023/05/18 04:06:03;;;;;;;;;12.80;12.80;;;;;10.04;75.80;99403.91;5049790;28;8843;-78
2023/05/18 04:08:33;;;;;;;;;42.40;35.60;;;;;10.46;74.10;99405.63;5032910;28;8852;-77
2023/05/18 04:11:02;;;;;;;;;12.60;11.40;;;;;10.23;73.76;99406.16;5001337;28;8829;-78
2023/05/18 04:13:31;;;;;;;;;12.20;9.40;;;;;10.26;72.88;99412.22;5015606;28;8859;-78
2023/05/18 04:16:02;;;;;;;;;36.75;35.50;;;;;10.36;72.51;99412.88;5032743;28;8848;-80
2023/05/18 04:18:31;;;;;;;;;15.40;13.00;;;;;10.56;71.70;99415.91;5048688;28;8856;-79
2023/05/18 04:21:00;;;;;;;;;10.40;10.00;;;;;10.09;72.90;99422.22;5067296;28;8852;-77
2023/05/18 04:23:30;;;;;;;;;12.40;11.00;;;;;10.19;72.62;99423.75;5051187;28;8883;-81
2023/05/18 04:26:00;;;;;;;;;6.20;6.20;;;;;10.51;72.11;99425.66;5052691;28;8988;-78
2023/05/18 04:28:30;;;;;;;;;7.80;7.80;;;;;10.78;71.17;99429.47;5065941;28;8879;-80
2023/05/18 04:31:00;;;;;;;;;9.80;8.80;;;;;10.98;69.98;99428.97;5032976;28;8840;-77
2023/05/18 04:33:29;;;;;;;;;12.40;11.40;;;;;10.93;69.95;99428.22;5028354;28;8868;-81
2023/05/18 04:36:03;;;;;;;;;7.60;7.40;;;;;10.93;69.68;99427.34;5046058;28;8875;-79
2023/05/18 04:38:33;;;;;;;;;9.60;7.60;;;;;11.07;69.32;99432.28;5031224;28;8883;-78
2023/05/18 04:41:06;;;;;;;;;10.00;8.80;;;;;11.14;69.71;99432.09;5029215;28;8845;-78
2023/05/18 04:43:36;;;;;;;;;9.80;9.80;;;;;11.13;68.65;99427.72;5028897;28;8864;-79
2023/05/18 04:46:06;;;;;;;;;7.00;7.00;;;;;11.20;68.54;99438.97;5012292;28;8853;-77
2023/05/18 04:48:36;;;;;;;;;7.20;7.20;;;;;11.16;68.11;99432.94;5044165;28;8880;-77
2023/05/18 04:51:06;;;;;;;;;8.20;6.60;;;;;11.24;68.56;99429.22;5012227;28;8852;-79
2023/05/18 04:53:37;;;;;;;;;10.00;7.60;;;;;11.32;67.52;99438.66;5012563;28;9595;-79
2023/05/18 04:56:08;;;;;;;;;7.00;6.80;;;;;10.94;68.50;99435.22;5028855;28;8871;-79
2023/05/18 04:58:37;;;;;;;;;13.00;11.60;;;;;10.57;70.42;99446.53;5045870;28;8912;-82
2023/05/18 05:01:06;;;;;;;;;9.40;7.80;;;;;10.47;70.90;99444.19;5008991;28;8867;-77
2023/05/18 05:03:35;;;;;;;;;2.60;2.60;;;;;10.64;70.06;99451.69;4965011;28;8937;-78
2023/05/18 05:06:05;;;;;;;;;10.20;10.00;;;;;10.34;71.20;99459.34;5061625;28;8851;-78
2023/05/18 05:08:34;;;;;;;;;6.20;5.60;;;;;10.46;69.88;99456.44;5083321;28;8867;-78
2023/05/18 05:11:04;;;;;;;;;9.20;7.00;;;;;10.52;69.66;99448.44;5082833;28;8858;-78
2023/05/18 05:13:34;;;;;;;;;7.80;6.80;;;;;9.74;72.77;99456.13;5082967;28;8866;-78
2023/05/18 05:16:04;;;;;;;;;7.00;6.20;;;;;10.40;71.67;99461.81;5083001;28;8864;-79
2023/05/18 05:18:32;;;;;;;;;7.40;6.40;;;;;10.69;69.88;99462.94;5053145;28;8853;-79
2023/05/18 05:21:02;;;;;;;;;5.00;4.20;;;;;10.40;69.83;99467.09;5052976;28;8846;-80
2023/05/18 05:23:31;;;;;;;;;5.60;5.60;;;;;10.34;70.99;99464.59;5027322;28;9046;-79
2023/05/18 05:26:00;;;;;;;;;7.40;7.40;;;;;10.45;69.95;99464.38;5059801;28;8866;-78
2023/05/18 05:28:30;;;;;;;;;9.00;7.80;;;;;10.28;70.37;99462.97;5047256;28;8978;-78
2023/05/18 05:31:00;;;;;;;;;13.00;13.00;;;;;9.95;72.48;99473.28;5044619;28;8881;-79
2023/05/18 05:33:30;;;;;;;;;9.20;9.20;;;;;10.29;71.54;99466.44;5028437;28;8857;-80
2023/05/18 05:35:59;;;;;;;;;7.20;6.20;;;;;10.69;70.08;99462.94;5045687;28;9571;-78
2023/05/18 05:38:28;;;;;;;;;8.20;8.20;;;;;10.72;69.00;99465.50;5014068;28;8947;-77
2023/05/18 05:40:58;;;;;;;;;7.80;7.80;;;;;11.08;68.57;99470.84;5045042;28;8926;-77
2023/05/18 05:43:26;;;;;;;;;12.40;11.20;;;;;10.62;69.16;99469.25;5045257;28;8942;-78
2023/05/18 05:45:56;;;;;;;;;5.20;5.20;;;;;10.22;70.27;99476.22;5051940;28;8862;-76
2023/05/18 05:48:27;;;;;;;;;13.60;11.00;;;;;10.47;70.37;99473.94;5064090;28;8992;-77
2023/05/18 05:50:56;;;;;;;;;10.40;10.40;;;;;10.42;70.06;99475.78;5044648;28;8926;-78
2023/05/18 05:53:25;;;;;;;;;7.00;6.80;;;;;10.39;70.38;99479.38;5004131;28;8899;-78
2023/05/18 05:55:54;;;;;;;;;6.00;6.00;;;;;10.50;69.82;99488.75;5062618;28;8831;-79
2023/05/18 05:58:23;;;;;;;;;9.80;8.40;;;;;10.76;69.15;99480.34;5030187;28;8845;-80
2023/05/18 06:00:57;;;;;;;;;8.00;8.00;;;;;10.56;69.31;99484.25;5052459;28;9664;-80
2023/05/18 06:03:30;;;;;;;;;10.00;8.80;;;;;10.81;68.35;99482.88;5057354;28;8878;-79
2023/05/18 06:06:06;;;;;;;;;10.00;8.80;;;;;10.57;69.05;99487.75;5068187;28;8963;-79
2023/05/18 06:08:35;;;;;;;;;9.20;9.20;;;;;10.04;71.33;99485.34;5059434;28;8841;-78
2023/05/18 06:11:04;;;;;;;;;11.80;11.80;;;;;9.95;71.88;99486.41;5014723;28;8977;-79
2023/05/18 06:13:33;;;;;;;;;10.00;10.00;;;;;9.76;72.93;99483.25;5010033;28;8856;-79
2023/05/18 06:16:02;;;;;;;;;10.00;8.00;;;;;9.44;73.36;99491.66;5023489;28;8841;-79
2023/05/18 06:18:33;;;;;;;;;12.60;10.60;;;;;9.84;72.52;99497.97;5019966;28;8945;-78
2023/05/18 06:21:05;;;;;;;;;10.20;9.00;;;;;10.13;71.37;99497.44;4979010;28;8878;-79
2023/05/18 06:23:35;;;;;;;;;12.40;12.40;;;;;9.85;72.47;99497.94;4992436;28;8880;-78
2023/05/18 06:26:04;;;;;;;;;10.40;9.20;;;;;9.43;73.26;99503.91;5029568;28;8864;-77
2023/05/18 06:29:02;;;;;;;;;10.80;10.60;;;;;9.09;75.53;99515.84;5044438;28;8869;-78
2023/05/18 06:31:51;;;;;;;;;19.40;18.00;;;;;9.21;76.77;99526.13;4988770;28;8903;-81
2023/05/18 06:34:25;;;;;;;;;12.20;12.00;;;;;9.54;75.44;99516.00;4990640;28;8859;-78
2023/05/18 06:36:54;;;;;;;;;13.00;11.80;;;;;10.07;72.60;99521.19;4970854;28;8887;-78
2023/05/18 06:39:23;;;;;;;;;10.40;10.40;;;;;10.31;71.91;99523.34;4979085;28;9007;-77
2023/05/18 06:41:52;;;;;;;;;10.60;10.60;;;;;10.83;70.48;99523.16;4986340;28;8881;-78
2023/05/18 06:44:27;;;;;;;;;17.20;12.60;;;;;10.83;69.66;99529.25;5004549;28;8878;-79
2023/05/18 06:47:06;;;;;;;;;13.80;13.80;;;;;11.01;68.97;99520.09;5004669;28;8862;-80
2023/05/18 06:49:37;;;;;;;;;19.60;17.60;;;;;10.89;69.03;99517.75;4971877;28;8908;-80
2023/05/18 06:52:08;;;;;;;;;9.20;9.20;;;;;10.99;68.66;99524.50;5006854;28;8968;-77
2023/05/18 06:54:38;;;;;;;;;11.80;11.80;;;;;10.68;69.07;99538.31;4992060;28;8883;-78
2023/05/18 06:57:07;;;;;;;;;11.00;10.60;;;;;11.03;68.11;99527.94;5008169;28;8855;-78
2023/05/18 06:59:38;;;;;;;;;14.00;12.60;;;;;10.98;68.20;99528.06;5008482;28;8883;-79
2023/05/18 07:02:08;;;;;;;;;13.20;13.20;;;;;11.09;67.84;99526.06;4991940;28;8847;-78
2023/05/18 07:04:38;;;;;;;;;14.40;13.00;;;;;11.55;67.35;99527.53;4991886;28;9688;-79
2023/05/18 07:07:08;;;;;;;;;13.60;13.40;;;;;11.41;65.86;99539.31;4991537;28;8844;-77
2023/05/18 07:09:37;;;;;;;;;11.80;11.40;;;;;10.92;68.08;99536.94;5028755;28;8872;-80
2023/05/18 07:12:07;;;;;;;;;11.00;11.00;;;;;11.00;67.76;99543.81;5032725;28;9670;-78
2023/05/18 07:14:36;;;;;;;;;15.20;13.60;;;;;10.79;68.30;99539.00;5049298;28;8860;-78
2023/05/18 07:17:06;;;;;;;;;10.80;10.40;;;;;11.08;67.29;99539.22;5050282;28;8857;-79
2023/05/18 07:19:35;;;;;;;;;11.60;11.60;;;;;11.31;67.49;99534.31;5032374;28;8951;-79
2023/05/18 07:22:06;;;;;;;;;7.60;7.60;;;;;11.39;67.56;99534.13;5050145;28;8841;-79
2023/05/18 07:24:35;;;;;;;;;10.20;10.20;;;;;11.22;67.19;99531.88;5031661;28;8875;-78
2023/05/18 07:27:05;;;;;;;;;12.80;12.80;;;;;11.32;67.23;99537.78;5048797;28;8861;-80
2023/05/18 07:29:33;;;;;;;;;13.00;12.00;;;;;11.06;67.87;99538.41;5048533;28;8853;-78
2023/05/18 07:32:03;;;;;;;;;12.00;11.80;;;;;10.91;68.60;99544.88;5050138;28;8899;-77
2023/05/18 07:34:32;;;;;;;;;9.80;9.80;;;;;10.74;69.16;99540.84;5031387;28;8878;-78
2023/05/18 07:37:02;;;;;;;;;13.40;13.40;;;;;11.15;67.89;99536.41;5048808;28;8856;-79
2023/05/18 07:39:32;;;;;;;;;14.40;12.80;;;;;10.92;68.83;99546.63;5048769;28;8954;-80
2023/05/18 07:42:02;;;;;;;;;10.80;10.20;;;;;10.71;69.42;99543.53;5067975;28;8846;-77
2023/05/18 07:44:31;;;;;;;;;16.80;16.80;;;;;10.64;69.90;99538.44;5051405;28;8997;-78
2023/05/18 07:47:00;;;;;;;;;15.00;14.00;;;;;10.66;70.32;99547.16;5068267;28;8911;-80
2023/05/18 07:49:29;;;;;;;;;12.60;12.60;;;;;11.21;68.70;99548.56;5068355;28;8889;-79
2023/05/18 07:51:58;;;;;;;;;13.40;12.60;;;;;11.33;67.71;99550.91;5068682;28;8851;-79
2023/05/18 07:54:26;;;;;;;;;8.20;7.60;;;;;11.16;68.69;99550.44;5076436;28;8874;-80
2023/05/18 07:56:56;;;;;;;;;9.60;9.60;;;;;10.32;71.47;99559.22;5071587;28;8866;-78
2023/05/18 07:59:28;;;;;;;;;12.80;10.80;;;;;10.19;72.85;99555.09;5088835;28;8924;-81
2023/05/18 08:01:57;;;;;;;;;11.80;10.60;;;;;9.77;73.88;99557.63;5072552;28;8893;-79
2023/05/18 08:04:26;;;;;;;;;12.40;12.40;;;;;9.81;73.52;99557.53;5089992;28;8842;-80
2023/05/18 08:06:59;;;;;;;;;10.80;10.20;;;;;9.32;75.14;99566.19;5070442;28;8865;-77
2023/05/18 08:09:28;;;;;;;;;20.20;19.80;;;;;9.47;76.47;99569.47;5053786;28;8896;-79
2023/05/18 08:11:58;;;;;;;;;11.80;11.80;;;;;9.34;76.90;99567.03;5075876;28;8854;-80
2023/05/18 08:14:27;;;;;;;;;12.00;12.00;;;;;9.55;75.89;99568.44;5036506;28;8944;-78
2023/05/18 08:16:56;;;;;;;;;9.60;9.60;;;;;9.39;75.32;99578.31;5069773;28;9666;-80
2023/05/18 08:19:25;;;;;;;;;19.60;18.00;;;;;9.53;77.54;99572.84;5033447;28;8880;-77
2023/05/18 08:21:54;;;;;;;;;13.20;12.80;;;;;9.75;75.52;99576.00;5029741;28;8953;-79
2023/05/18 08:24:23;;;;;;;;;11.40;10.40;;;;;9.70;74.58;99583.09;5029372;28;8943;-77
2023/05/18 08:26:52;;;;;;;;;10.60;10.40;;;;;9.60;76.02;99584.16;5029384;28;8858;-79
2023/05/18 08:29:22;;;;;;;;;13.80;13.80;;;;;9.78;75.08;99594.34;5029369;28;8853;-79
2023/05/18 08:31:51;;;;;;;;;11.00;11.00;;;;;10.23;72.89;99582.16;5045944;28;8883;-81
2023/05/18 08:34:20;;;;;;;;;13.80;13.80;;;;;10.42;73.07;99588.78;5029599;28;8881;-78
2023/05/18 08:36:51;;;;;;;;;13.20;11.40;;;;;10.69;71.76;99578.59;5009059;28;8856;-77
2023/05/18 08:39:21;;;;;;;;;13.80;13.00;;;;;10.61;71.58;99591.91;5009474;28;8953;-78
2023/05/18 08:41:57;;;;;;;;;10.80;8.40;;;;;10.15;72.45;99592.81;5009017;28;8859;-80
2023/05/18 08:44:34;;;;;;;;;9.40;8.80;;;;;9.94;72.99;99592.31;5009436;28;8882;-82
2023/05/18 08:47:09;;;;;;;;;14.00;12.00;;;;;10.53;72.65;99597.31;4960767;28;8856;-79
2023/05/18 08:49:41;;;;;;;;;13.00;11.80;;;;;11.27;70.48;99592.28;5009610;28;9713;-82
2023/05/18 08:52:18;;;;;;;;;10.20;10.20;;;;;11.33;69.48;99590.41;5014307;28;8879;-78
2023/05/18 08:54:51;;;;;;;;;14.40;13.80;;;;;11.75;67.62;99592.88;5065549;28;9609;-78
2023/05/18 08:57:22;;;;;;;;;14.40;14.40;;;;;11.44;67.23;99595.38;5016433;28;8860;-78
2023/05/18 08:59:54;;;;;;;;;12.80;12.80;;;;;11.99;66.59;99585.28;5048969;28;8887;-77
2023/05/18 09:02:24;;;;;;;;;9.80;9.80;;;;;11.43;68.19;99591.03;5048860;28;8887;-78
2023/05/18 09:04:55;;;;;;;;;10.40;9.60;;;;;11.57;67.39;99594.19;5031768;28;8852;-79
2023/05/18 09:07:26;;;;;;;;;11.40;11.40;;;;;11.40;67.36;99595.50;5029784;28;8841;-78
2023/05/18 09:09:55;;;;;;;;;8.80;8.80;;;;;10.84;69.10;99602.00;5046911;28;8938;-79
2023/05/18 09:12:26;;;;;;;;;10.40;10.40;;;;;10.86;70.28;99597.59;5012860;28;8963;-78
2023/05/18 09:14:58;;;;;;;;;13.40;12.80;;;;;11.11;70.00;99599.69;5031373;28;8824;-80
2023/05/18 09:17:27;;;;;;;;;12.20;12.20;;;;;11.73;67.76;99597.31;5009391;28;8855;-78
2023/05/18 09:19:56;;;;;;;;;12.40;12.40;;;;;12.04;65.01;99600.97;4992756;28;8863;-79
2023/05/18 09:22:25;;;;;;;;;10.40;10.20;;;;;11.71;65.85;99600.88;5025287;28;8856;-80
2023/05/18 09:24:55;;;;;;;;;14.60;14.00;;;;;11.92;66.52;99592.50;5008623;28;8945;-79
2023/05/18 09:27:24;;;;;;;;;11.80;11.80;;;;;11.49;67.98;99598.78;5025089;28;8855;-77
2023/05/18 09:29:55;;;;;;;;;11.80;11.20;;;;;11.51;67.73;99596.13;5025416;28;8914;-78
2023/05/18 09:32:26;;;;;;;;;15.20;14.80;;;;;11.49;68.31;99592.66;5009037;28;9656;-80
2023/05/18 09:34:55;;;;;;;;;14.60;11.60;;;;;11.80;66.30;99600.66;5025667;28;8966;-80
2023/05/18 09:37:24;;;;;;;;;11.20;11.20;;;;;12.06;65.11;99602.66;5011699;28;8867;-78
2023/05/18 09:39:59;;;;;;;;;11.00;11.00;;;;;12.02;65.53;99592.25;4965740;28;8856;-77
2023/05/18 09:42:35;;;;;;;;;12.80;11.20;;;;;12.41;64.75;99594.69;4993950;28;8986;-78
2023/05/18 09:45:05;;;;;;;;;14.00;14.00;;;;;12.38;63.78;99594.81;5009229;28;9052;-77
2023/05/18 09:47:35;;;;;;;;;14.80;14.80;;;;;12.39;64.64;99602.69;5008691;28;8851;-78
2023/05/18 09:50:05;;;;;;;;;13.00;12.60;;;;;12.82;62.64;99593.50;5008824;28;8855;-78
2023/05/18 09:52:40;;;;;;;;;8.00;8.00;;;;;13.31;61.66;99586.78;5009064;28;8849;-79
2023/05/18 09:55:10;;;;;;;;;9.60;9.60;;;;;13.26;60.48;99590.47;5046625;28;8945;-78
2023/05/18 09:57:42;;;;;;;;;13.40;13.40;;;;;12.87;61.78;99593.44;5029930;28;8857;-77
2023/05/18 10:00:12;;;;;;;;;14.00;13.20;;;;;12.57;63.05;99606.56;5050316;28;8992;-77
2023/05/18 10:02:47;;;;;;;;;11.60;11.60;;;;;12.01;63.29;99609.81;5047633;28;8865;-79
2023/05/18 10:05:20;;;;;;;;;15.00;15.00;;;;;12.16;64.23;99611.19;5046815;28;10050;-77
2023/05/18 10:07:51;;;;;;;;;13.20;13.20;;;;;12.04;65.20;99607.09;5029517;28;8853;-78
2023/05/18 10:10:21;;;;;;;;;10.60;10.20;;;;;12.71;63.74;99604.41;5047125;28;8857;-77
2023/05/18 10:12:52;;;;;;;;;14.60;13.00;;;;;13.06;62.20;99604.28;5046399;28;8945;-79
2023/05/18 10:15:22;;;;;;;;;12.80;11.60;;;;;13.36;62.10;99607.75;5047292;28;8857;-77
2023/05/18 10:17:56;;;;;;;;;16.00;15.00;;;;;12.89;61.59;99607.44;5033478;28;8998;-78
2023/05/18 10:20:26;;;;;;;;;17.20;16.20;;;;;12.08;63.84;99615.78;5033040;28;9011;-78
2023/05/18 10:22:58;;;;;;;;;11.60;11.60;;;;;11.80;65.48;99616.44;5016020;28;8920;-81
2023/05/18 10:25:27;;;;;;;;;20.60;17.20;;;;;12.04;64.90;99614.16;5049850;28;8946;-78
2023/05/18 10:28:00;;;;;;;;;14.20;12.40;;;;;12.26;64.39;99610.03;5024812;28;9706;-78
2023/05/18 10:30:29;;;;;;;;;13.80;13.80;;;;;12.58;63.04;99615.31;5009645;28;8854;-80
2023/05/18 10:33:02;;;;;;;;;15.40;14.20;;;;;12.25;64.04;99610.09;4961030;28;8928;-78
2023/05/18 10:35:43;;;;;;;;;16.20;15.20;;;;;12.46;63.87;99612.13;5009870;28;9706;-78
2023/05/18 10:38:12;;;;;;;;;16.00;15.20;;;;;12.85;62.56;99614.56;5008751;28;8878;-79
2023/05/18 10:40:44;;;;;;;;;12.40;12.40;;;;;12.97;61.65;99609.84;4976876;28;8858;-78
2023/05/18 10:43:16;;;;;;;;;13.40;11.20;;;;;12.53;63.46;99611.03;4995959;28;8876;-82
2023/05/18 10:45:52;;;;;;;;;14.00;13.20;;;;;12.78;62.82;99615.63;5008932;28;9052;-80
2023/05/18 10:48:23;;;;;;;;;14.80;14.80;;;;;12.85;62.65;99609.28;5009030;28;8889;-80
2023/05/18 10:50:54;;;;;;;;;17.60;17.60;;;;;13.07;61.48;99613.91;5025705;28;8925;-79
2023/05/18 10:53:25;;;;;;;;;13.00;13.00;;;;;12.90;61.51;99612.69;5045074;28;8863;-81
2023/05/18 10:55:54;;;;;;;;;13.80;13.60;;;;;13.11;60.70;99608.53;5028757;28;8860;-80
2023/05/18 10:58:26;;;;;;;;;15.00;12.80;;;;;13.53;59.74;99601.94;5028085;28;8882;-76
2023/05/18 11:00:56;;;;;;;;;14.60;14.60;;;;;13.39;60.43;99609.44;5028057;28;8961;-81
2023/05/18 11:03:27;;;;;;;;;16.40;16.00;;;;;12.77;61.17;99610.38;5044853;28;8898;-78
2023/05/18 11:06:08;;;;;;;;;13.80;13.80;;;;;12.70;62.59;99612.34;5041871;28;8879;-78
2023/05/18 11:08:47;;;;;;;;;18.80;18.20;;;;;11.85;66.69;99627.78;5050357;28;8954;-80
2023/05/18 11:11:16;;;;;;;;;14.40;14.40;;;;;12.42;64.56;99612.25;5050784;28;8880;-79
2023/05/18 11:13:49;;;;;;;;;16.40;16.40;;;;;12.85;62.43;99619.00;5051380;28;8857;-79
2023/05/18 11:16:18;;;;;;;;;9.20;9.20;;;;;13.14;61.27;99617.25;5049216;28;8856;-78
2023/05/18 11:18:51;;;;;;;;;14.60;14.60;;;;;12.48;63.15;99623.47;5048856;28;8845;-78
2023/05/18 11:21:22;;;;;;;;;14.60;14.60;;;;;12.18;65.22;99619.91;5050517;28;8975;-79
2023/05/18 11:24:20;;;;;;;;;17.60;17.40;;;;;12.89;62.97;99626.75;5023698;28;8861;-78
2023/05/18 11:26:50;;;;;;;;;17.40;17.40;;;;;12.80;64.17;99620.84;5069750;28;9009;-77
2023/05/18 11:29:22;;;;;;;;;14.80;14.20;;;;;12.43;64.68;99620.13;5070468;28;8874;-78
2023/05/18 11:31:53;;;;;;;;;16.60;14.60;;;;;12.57;64.49;99618.88;5068208;28;8870;-79
2023/05/18 11:34:43;;;;;;;;;20.00;18.20;;;;;13.11;63.22;99620.88;5051736;28;8866;-79
2023/05/18 11:37:14;;;;;;;;;16.40;16.20;;;;;13.29;62.21;99620.28;5069171;28;8888;-80
2023/05/18 11:39:54;;;;;;;;;20.40;18.60;;;;;13.66;60.70;99615.63;5059395;28;8844;-79
2023/05/18 11:42:33;;;;;;;;;17.20;15.80;;;;;13.72;59.88;99618.06;5062282;28;8940;-80
2023/05/18 11:45:09;;;;;;;;;16.40;16.00;;;;;13.07;61.32;99620.09;5070257;28;9604;-79
2023/05/18 11:47:40;;;;;;;;;17.80;17.20;;;;;12.82;62.14;99632.22;5075583;28;9654;-79